Oxford, NE (68967)

02:37 AM CDT del 31 Ottobre 2014 (GMT -0500)
Brewster | Change Station
CLOSE
Current Station
Aeroporto
Location: Holdrege,
Altitudine: 2310 ft
Stazioni meteo nelle vicinanze

Alt. 2310 ft 40.45 °N, 99.34 °W | Updated 22 minutes ago

Sereno
Sereno
34 °F
Sembra 25 °F
N
13
Vento Variabile Vento da NNE

Oggi
Massima -- | Minima -- °F
--% Possibilità di precip.
Ieri
Massima -- | Minima -- °F
Precip. -- in
8:06 AM 6:36 PM
Primo quarto, 52% visible
Pressione 30.45 in
Visibilità 10.0 miglia
Nuvole Sereno
Raffreddamento del vento 25 °F
Punto di rugiada 31 °F
Umidità 90%
Piovosità 0.00 in
Spessore del manto nevoso Non disponibile.
Raggi UV 0 fuori da 12
Polline 1.80 fuori da 12
Qualità dell'aria Non disponibile.
Flu Activity Non disponibile.
METAR KHDE 310715Z AUTO 02011KT 10SM CLR 01/00 A3045 RMK AO2 T00101005

More Conditions Fewer Conditions

Pressione 30.45 in
Visibilità 10.0 miglia
Nuvole Sereno
Raffreddamento del vento 25 °F
Punto di rugiada 31 °F
Umidità 90%
Piovosità 0.00 in
Spessore del manto nevoso Non disponibile.
Raggi UV 0 fuori da 12
Polline 1.80 fuori da 12
Qualità dell'aria Non disponibile.
Flu Activity Non disponibile.
METAR KHDE 310715Z AUTO 02011KT 10SM CLR 01/00 A3045 RMK AO2 T00101005

More Conditions Fewer Conditions

10-Day Weather Forecast

Almanac

Astronomia

Oct. 31, 2014 Alba Tramonto
Ora attuale
Crepuscolo civile
Crepuscolo nautico
Crepuscolo astronomico
Luna
Estensione della luce visibile
Lunghezza del giorno
Tomorrow will be .
, % of the Moon is Illuminated

Gli estremi di oggi

State Highs State Lows

Community

WunderPhotos

Upload Photos

1,766,573 foto caricate!

WunderBlogs® & News

Nearby

Qualità dell'aria

  Qualità dell'aria Indice AQ Inquinante
Not available.

Profondità neve

Stazione Profondità Altitudine

Attività sismica

Città  Distanza Mag. Data & Ora
Minimo Magnitudo Mostrato è 2.5.

Temperature delle acque costiere

Località Temperatura

Stazioni meteo nelle vicinanze